createdAt,value
2019-03-10T06:31:18.113Z,5.25
2019-03-10T06:33:47.422Z,5.37
2019-03-10T06:36:16.598Z,6.05
2019-03-10T06:38:45.752Z,2.40
2019-03-10T06:41:15.132Z,3.20
2019-03-10T06:43:44.328Z,5.37
2019-03-10T06:46:13.480Z,3.90
2019-03-10T06:48:42.829Z,4.53
2019-03-10T06:51:11.978Z,2.15
2019-03-10T06:53:41.143Z,4.37
2019-03-10T06:56:10.286Z,5.25
2019-03-10T06:58:39.450Z,4.22
2019-03-10T07:01:08.602Z,5.85
2019-03-10T07:03:37.759Z,5.78
2019-03-10T07:06:06.919Z,7.92
2019-03-10T07:08:36.076Z,5.00
2019-03-10T07:11:05.228Z,4.67
2019-03-10T07:13:34.390Z,5.87
2019-03-10T07:16:03.545Z,7.65
2019-03-10T07:18:33.082Z,7.85
2019-03-10T07:21:02.289Z,5.10
2019-03-10T07:23:31.441Z,9.08
2019-03-10T07:26:06.560Z,4.62
2019-03-10T07:28:43.568Z,6.05
2019-03-10T07:31:26.289Z,5.62
2019-03-10T07:33:57.099Z,5.95
2019-03-10T07:36:28.001Z,6.70
2019-03-10T07:38:58.861Z,8.23
2019-03-10T07:41:41.365Z,7.42
2019-03-10T07:44:12.172Z,7.83
2019-03-10T07:46:42.999Z,5.58
2019-03-10T07:49:13.871Z,7.72
2019-03-10T07:51:44.694Z,6.10
2019-03-10T07:54:27.237Z,4.00
2019-03-10T07:57:00.798Z,4.20
2019-03-10T07:59:43.736Z,7.53
2019-03-10T08:02:31.353Z,5.28
2019-03-10T08:05:03.162Z,4.67
2019-03-10T08:07:42.903Z,6.20
2019-03-10T08:10:29.822Z,8.93
2019-03-10T08:13:16.908Z,5.03
2019-03-10T08:16:04.457Z,9.78
2019-03-10T08:18:38.190Z,5.35
2019-03-10T08:21:15.030Z,6.62
2019-03-10T08:23:45.836Z,5.05
2019-03-10T08:26:19.436Z,9.48
2019-03-10T08:28:52.929Z,6.80
2019-03-10T08:31:29.934Z,8.03
2019-03-10T08:34:09.817Z,7.33
2019-03-10T08:36:43.219Z,7.08
2019-03-10T08:39:14.051Z,5.85
2019-03-10T08:41:47.676Z,10.58
2019-03-10T08:44:18.503Z,6.65
2019-03-10T08:47:05.431Z,20.25
2019-03-10T08:49:45.019Z,7.58
2019-03-10T08:52:16.441Z,7.75
2019-03-10T08:54:50.090Z,5.53
2019-03-10T08:57:21.323Z,2.52
2019-03-10T08:59:53.334Z,6.70
2019-03-10T09:02:40.693Z,8.65
2019-03-10T09:05:17.514Z,3.87
2019-03-10T09:08:04.837Z,4.08
2019-03-10T09:10:36.162Z,4.85
2019-03-10T09:13:07.172Z,7.30
2019-03-10T09:15:41.232Z,4.55
2019-03-10T09:18:21.726Z,11.05
2019-03-10T09:20:55.738Z,4.97
2019-03-10T09:23:43.185Z,5.30
2019-03-10T09:26:23.063Z,4.10
2019-03-10T09:29:03.233Z,6.22
2019-03-10T09:31:37.310Z,7.25
2019-03-10T09:34:11.023Z,4.92
2019-03-10T09:36:42.113Z,6.05
2019-03-10T09:39:19.052Z,8.03
2019-03-10T09:42:06.526Z,8.33
2019-03-10T09:44:53.805Z,6.62
2019-03-10T09:47:30.525Z,9.03
2019-03-10T09:50:08.066Z,7.92
2019-03-10T09:52:45.013Z,6.08
2019-03-10T09:55:27.879Z,5.60
2019-03-10T09:58:01.233Z,6.85
2019-03-10T10:00:32.088Z,4.62
2019-03-10T10:03:19.310Z,7.78
2019-03-10T10:05:50.097Z,7.58
2019-03-10T10:08:23.912Z,5.03
2019-03-10T10:11:00.891Z,5.95
2019-03-10T10:13:43.715Z,4.87
2019-03-10T10:16:26.324Z,6.75
2019-03-10T10:19:03.362Z,7.65
2019-03-10T10:21:40.016Z,5.70
2019-03-10T10:24:16.601Z,5.33
2019-03-10T10:26:47.391Z,5.35
2019-03-10T10:29:20.981Z,9.85
2019-03-10T10:32:00.589Z,6.40
2019-03-10T10:34:47.671Z,7.58
2019-03-10T10:37:24.446Z,5.05
2019-03-10T10:40:07.192Z,8.10
2019-03-10T10:42:54.407Z,6.87
2019-03-10T10:45:34.404Z,3.87
2019-03-10T10:48:17.041Z,5.53
2019-03-10T10:50:47.941Z,7.15
2019-03-10T10:53:34.070Z,4.78
2019-03-10T10:56:10.571Z,5.80
2019-03-10T10:58:41.762Z,6.83
2019-03-10T11:01:15.356Z,6.53
2019-03-10T11:03:58.511Z,6.05
2019-03-10T11:06:38.431Z,7.42
2019-03-10T11:09:26.093Z,6.83
2019-03-10T11:11:56.933Z,7.65
2019-03-10T11:14:33.572Z,5.15
2019-03-10T11:17:07.209Z,7.35
2019-03-10T11:19:38.044Z,6.25
2019-03-10T11:22:08.873Z,5.95
2019-03-10T11:24:42.427Z,6.12
2019-03-10T11:27:19.361Z,5.37
2019-03-10T11:29:55.764Z,5.80
2019-03-10T11:32:26.581Z,4.20
2019-03-10T11:35:13.428Z,4.65
2019-03-10T11:37:54.061Z,8.63
2019-03-10T11:40:27.624Z,7.40
2019-03-10T11:42:58.440Z,8.25
2019-03-10T11:45:44.152Z,4.62
2019-03-10T11:48:14.961Z,5.15
2019-03-10T11:50:51.444Z,5.53
2019-03-10T11:53:31.443Z,8.80
2019-03-10T11:56:14.289Z,6.35
2019-03-10T11:59:03.648Z,7.17
2019-03-10T12:01:43.442Z,8.70
2019-03-10T12:04:29.795Z,7.25
2019-03-10T12:07:16.532Z,4.35
2019-03-10T12:09:46.347Z,6.67
2019-03-10T12:12:15.760Z,6.22
2019-03-10T12:14:45.287Z,4.28
2019-03-10T12:17:14.773Z,9.90
2019-03-10T12:19:44.587Z,6.58
2019-03-10T12:22:14.099Z,5.60
2019-03-10T12:24:43.395Z,5.53
2019-03-10T12:27:12.852Z,7.33
2019-03-10T12:29:42.230Z,6.00
2019-03-10T12:32:11.680Z,4.92
2019-03-10T12:34:41.264Z,3.92
2019-03-10T12:37:11.064Z,7.70
2019-03-10T12:39:40.370Z,5.70
2019-03-10T12:42:09.811Z,4.83
2019-03-10T12:44:39.223Z,3.27
2019-03-10T12:47:08.529Z,3.62
2019-03-10T12:49:37.674Z,4.55
2019-03-10T12:52:07.069Z,4.83
2019-03-10T12:54:36.215Z,6.45
2019-03-10T12:57:05.615Z,4.83
2019-03-10T12:59:35.205Z,4.87
2019-03-10T13:02:04.358Z,10.35
2019-03-10T13:04:33.642Z,6.33
2019-03-10T13:07:03.170Z,4.00
2019-03-10T13:09:32.291Z,4.65
2019-03-10T13:12:01.418Z,4.67
2019-03-10T13:14:31.048Z,4.05
2019-03-10T13:17:00.609Z,2.00
2019-03-10T13:19:29.757Z,4.28
2019-03-10T13:21:58.916Z,3.67
2019-03-10T13:24:28.059Z,3.60
2019-03-10T13:26:57.251Z,3.60
2019-03-10T13:29:26.389Z,3.20
2019-03-10T13:31:55.528Z,3.87
2019-03-10T13:34:25.871Z,6.17
2019-03-10T13:36:55.017Z,4.42
2019-03-10T13:39:24.149Z,4.85
2019-03-10T13:41:53.316Z,3.87
2019-03-10T13:44:51.348Z,2.75
2019-03-10T13:47:07.341Z,3.45
2019-03-10T13:49:36.545Z,4.15
2019-03-10T13:52:06.644Z,9.10
2019-03-10T13:54:35.840Z,5.60
2019-03-10T13:57:04.967Z,5.45
2019-03-10T13:59:34.099Z,4.80
2019-03-10T14:02:03.276Z,5.67
2019-03-10T14:04:32.415Z,4.45
2019-03-10T14:07:01.550Z,6.62
2019-03-10T14:09:30.795Z,11.33
2019-03-10T14:12:00.006Z,37.95
2019-03-10T14:14:29.161Z,22.02
2019-03-10T14:16:58.339Z,11.63
2019-03-10T14:19:27.529Z,15.15
2019-03-10T14:21:56.714Z,19.55
2019-03-10T14:24:25.911Z,21.40
2019-03-10T14:26:55.042Z,16.93
2019-03-10T14:29:24.200Z,54.18
2019-03-10T14:31:53.409Z,18.80
2019-03-10T14:34:22.561Z,14.87
2019-03-10T14:36:51.722Z,8.25
2019-03-10T14:39:20.935Z,8.05
2019-03-10T14:41:50.120Z,8.10
2019-03-10T14:47:11.956Z,7.90
2019-03-10T14:49:41.120Z,20.70
2019-03-10T14:52:10.282Z,47.83
2019-03-10T14:54:39.515Z,31.97
2019-03-10T14:57:09.747Z,41.30
2019-03-10T14:59:38.994Z,34.03
2019-03-10T15:02:08.161Z,27.13
2019-03-10T15:04:37.334Z,16.97
2019-03-10T15:07:06.562Z,14.75
2019-03-10T15:09:35.710Z,16.10
2019-03-10T15:12:04.852Z,13.38
2019-03-10T15:14:34.106Z,13.32
2019-03-10T15:17:03.240Z,18.27
2019-03-10T15:19:32.762Z,70.10
2019-03-10T15:22:02.041Z,71.02
2019-03-10T15:24:31.260Z,40.12
2019-03-10T15:27:00.409Z,29.80
2019-03-10T15:29:29.854Z,22.95
2019-03-10T15:31:58.986Z,7.15
2019-03-10T15:34:28.197Z,12.28
2019-03-10T15:36:57.334Z,5.55
2019-03-10T15:39:27.367Z,8.08
2019-03-10T15:41:57.056Z,11.88
2019-03-10T15:44:26.307Z,6.03
2019-03-10T15:46:55.532Z,4.20
2019-03-10T15:49:24.659Z,6.62
2019-03-10T15:51:53.951Z,3.37
2019-03-10T15:54:23.095Z,5.37
2019-03-10T15:56:52.256Z,4.00
2019-03-10T15:59:21.466Z,4.50
2019-03-10T16:04:50.075Z,5.97
2019-03-10T16:07:20.346Z,8.43
2019-03-10T16:09:49.615Z,9.73
2019-03-10T16:12:18.808Z,140.88
2019-03-10T16:14:47.966Z,89.72
2019-03-10T16:17:17.129Z,34.23
2019-03-10T16:19:46.285Z,37.45
2019-03-10T16:22:15.446Z,35.48
2019-03-10T16:24:44.622Z,37.63
2019-03-10T16:27:13.783Z,88.47
2019-03-10T16:29:43.031Z,117.80
2019-03-10T16:32:12.195Z,112.25
2019-03-10T16:34:41.365Z,69.70
2019-03-10T16:37:10.547Z,65.32
2019-03-10T16:39:39.705Z,61.88
2019-03-10T16:42:08.873Z,95.38
2019-03-10T16:44:38.038Z,70.15
2019-03-10T16:47:07.180Z,65.55
2019-03-10T16:49:36.381Z,42.90
2019-03-10T16:52:05.534Z,44.53
2019-03-10T16:54:34.708Z,48.83
2019-03-10T16:57:03.930Z,42.73
2019-03-10T16:59:34.222Z,36.00
2019-03-10T17:02:03.829Z,46.80
2019-03-10T17:04:33.019Z,58.13
2019-03-10T17:07:02.181Z,73.52
2019-03-10T17:09:31.317Z,82.95
2019-03-10T17:12:00.513Z,69.80
2019-03-10T17:14:30.729Z,73.47
2019-03-10T17:16:59.934Z,74.15
2019-03-10T17:19:29.502Z,48.65
2019-03-10T17:21:58.744Z,53.63
2019-03-10T17:24:27.911Z,62.98
2019-03-10T17:26:57.057Z,80.17
2019-03-10T17:29:26.329Z,112.80
2019-03-10T17:31:55.470Z,106.47
2019-03-10T17:34:24.632Z,43.50
2019-03-10T17:36:54.893Z,48.85
2019-03-10T17:39:24.046Z,79.35
2019-03-10T17:41:53.218Z,88.92
2019-03-10T17:44:22.456Z,82.40
2019-03-10T17:46:53.113Z,185.03
2019-03-10T17:49:22.284Z,124.58
2019-03-10T17:51:51.538Z,93.22
2019-03-10T17:54:20.696Z,86.08
2019-03-10T17:56:49.837Z,74.30
2019-03-10T17:59:19.055Z,74.15
2019-03-10T18:01:48.300Z,89.17
2019-03-10T18:04:17.472Z,64.67
2019-03-10T18:06:46.696Z,67.05
2019-03-10T18:09:15.869Z,46.50
2019-03-10T18:11:45.034Z,50.28
2019-03-10T18:14:14.183Z,51.05
2019-03-10T18:16:43.355Z,59.85
2019-03-10T18:19:12.527Z,52.45
2019-03-10T18:21:41.687Z,45.98
2019-03-10T18:24:10.867Z,40.52
2019-03-10T18:26:40.177Z,33.50
2019-03-10T18:29:09.309Z,32.98
2019-03-10T18:31:38.637Z,32.95
2019-03-10T18:34:09.046Z,29.18
2019-03-10T18:36:38.548Z,27.95
2019-03-10T18:39:07.727Z,40.83
2019-03-10T18:41:38.593Z,40.65
2019-03-10T18:44:07.840Z,34.92
2019-03-10T18:46:37.071Z,31.52
2019-03-10T18:49:06.264Z,29.07
2019-03-10T18:51:35.403Z,29.12
2019-03-10T18:54:04.584Z,31.77
2019-03-10T18:56:33.817Z,32.42
2019-03-10T18:59:03.066Z,38.63
2019-03-10T19:01:32.246Z,37.80
2019-03-10T19:04:01.466Z,41.63
2019-03-10T19:06:30.739Z,40.08
2019-03-10T19:08:59.906Z,40.28
2019-03-10T19:11:29.061Z,37.03
2019-03-10T19:13:59.407Z,32.13
2019-03-10T19:16:28.629Z,32.98
2019-03-10T19:18:58.129Z,39.27
2019-03-10T19:21:27.364Z,70.12
2019-03-10T19:23:56.544Z,96.10
2019-03-10T19:26:25.823Z,133.85
2019-03-10T19:28:54.970Z,104.87
2019-03-10T19:31:24.244Z,34.80
2019-03-10T19:33:54.437Z,37.17
2019-03-10T19:36:23.687Z,44.18
2019-03-10T19:38:52.914Z,49.83
2019-03-10T19:41:22.172Z,105.58
2019-03-10T19:43:51.605Z,89.62
2019-03-10T19:46:20.866Z,79.17
2019-03-10T19:48:50.119Z,26.75
2019-03-10T19:51:19.285Z,24.32
2019-03-10T19:53:48.531Z,21.30
2019-03-10T19:56:17.835Z,21.23
2019-03-10T19:58:47.165Z,24.80
2019-03-10T20:01:16.423Z,25.12
2019-03-10T20:03:45.745Z,27.70
2019-03-10T20:06:15.010Z,26.77
2019-03-10T20:08:44.284Z,22.02
2019-03-10T20:11:13.540Z,23.45
2019-03-10T20:13:42.877Z,42.05
2019-03-10T20:16:12.177Z,33.40
2019-03-10T20:18:41.507Z,43.23
2019-03-10T20:21:10.760Z,36.38
2019-03-10T20:23:40.062Z,35.48
2019-03-10T20:26:09.464Z,28.40
2019-03-10T20:28:40.394Z,26.10
2019-03-10T20:31:09.697Z,26.73
2019-03-10T20:33:38.935Z,26.37
2019-03-10T20:36:08.264Z,27.13
2019-03-10T20:38:37.515Z,25.77
2019-03-10T20:41:06.761Z,24.87
2019-03-10T20:43:35.998Z,20.75
2019-03-10T20:46:05.293Z,25.62
2019-03-10T20:48:34.566Z,28.38
2019-03-10T20:51:05.292Z,21.10
2019-03-10T20:53:35.204Z,24.00
2019-03-10T20:56:04.523Z,20.60
2019-03-10T20:58:34.978Z,17.87
2019-03-10T21:01:04.397Z,16.20
2019-03-10T21:03:34.356Z,19.37
2019-03-10T21:06:04.095Z,17.55
2019-03-10T21:08:33.358Z,16.55
2019-03-10T21:11:02.768Z,14.50
2019-03-10T21:13:32.108Z,16.10
2019-03-10T21:16:01.426Z,14.18
2019-03-10T21:18:30.708Z,12.65
2019-03-10T21:21:01.094Z,10.27
2019-03-10T21:23:30.362Z,11.88
2019-03-10T21:25:59.508Z,12.45
2019-03-10T21:28:28.651Z,9.40
2019-03-10T21:30:57.953Z,10.00
2019-03-10T21:33:27.435Z,11.95
2019-03-10T21:35:56.652Z,9.53
2019-03-10T21:38:26.067Z,12.30
2019-03-10T21:40:55.374Z,13.43
2019-03-10T21:43:24.597Z,14.73
2019-03-10T21:45:53.843Z,12.07
2019-03-10T21:48:23.440Z,14.80
2019-03-10T21:50:52.848Z,10.73
2019-03-10T21:53:21.982Z,11.70
2019-03-10T21:55:52.277Z,12.00
2019-03-10T21:58:21.551Z,12.40
2019-03-10T22:00:50.775Z,9.70
2019-03-10T22:03:20.063Z,10.50
2019-03-10T22:05:49.285Z,11.25
2019-03-10T22:08:18.515Z,10.23
2019-03-10T22:10:48.791Z,9.67
2019-03-10T22:13:18.001Z,8.63
2019-03-10T22:15:47.284Z,5.60
2019-03-10T22:18:17.526Z,7.73
2019-03-10T22:20:46.669Z,7.53
2019-03-10T22:23:15.840Z,8.10
2019-03-10T22:25:45.136Z,6.30
2019-03-10T22:28:14.287Z,6.27
2019-03-10T22:30:43.886Z,6.37
2019-03-10T22:33:13.085Z,4.97
2019-03-10T22:35:42.338Z,4.90
2019-03-10T22:38:11.479Z,5.50
2019-03-10T22:40:41.937Z,6.30
2019-03-10T22:43:11.166Z,5.43
2019-03-10T22:45:40.336Z,6.40
2019-03-10T22:48:09.481Z,5.73
2019-03-10T22:50:38.639Z,7.53
2019-03-10T22:53:07.816Z,5.17
2019-03-10T22:55:37.099Z,7.00
2019-03-10T22:58:06.323Z,3.27
2019-03-10T23:00:46.181Z,4.53
2019-03-10T23:03:16.649Z,3.90
2019-03-10T23:05:45.865Z,2.73
2019-03-10T23:08:15.017Z,4.63
2019-03-10T23:10:44.315Z,4.03
2019-03-10T23:13:13.513Z,2.83
2019-03-10T23:15:42.692Z,2.63
2019-03-10T23:18:11.945Z,1.60
2019-03-10T23:20:41.086Z,1.70
2019-03-10T23:23:10.276Z,3.10
2019-03-10T23:25:39.494Z,3.83
2019-03-10T23:28:08.795Z,1.97
2019-03-10T23:30:38.024Z,3.03
2019-03-10T23:33:07.159Z,1.27
2019-03-10T23:35:36.933Z,3.53
2019-03-10T23:38:06.203Z,2.37
2019-03-10T23:40:35.353Z,2.87
2019-03-10T23:43:04.567Z,1.50
2019-03-10T23:45:33.765Z,2.67
2019-03-10T23:48:03.058Z,2.50
2019-03-10T23:50:32.303Z,3.00
2019-03-10T23:53:01.510Z,3.67
2019-03-10T23:55:30.785Z,6.03
2019-03-10T23:58:00.669Z,3.37
